Pavillion, Wyoming
Current Conditions -  °F | °C
As of 12:53 PM on Thursday 30 Oct 2014 (Local Time) from KRIW Reporting Station
Clear Clear  
Wind Chill: 51°   Ceiling: Unl
Heat Index: 51°   Visibility: 10mi
Dew Point: 27°   Wind: 0mph
Humidity: 39%   Direction: NA
Pressure: 30.34"   Gusts: NA
Location:  43.24°N, 108.69°W
Report Text: KRIW 301853Z AUTO 00000KT 10SM CLR 11/M03 A3034 RMK AO2 SLP262 T01061028
Loading
Personal Weather Stations






























Interactive Weather Map
Tropical Storm Tracking
New forecast layout! Learn more

10-Day Weather Forecast

Advertisements
Track Severe Weather on mobile